sensor_id;sensor_type;location;lat;lon;timestamp;pressure;altitude;pressure_sealevel;temperature;humidity
9059;BME280;4564;42.034;25.834;2022-10-17T00:00:43;101660.88;;;7.39;79.99
9059;BME280;4564;42.034;25.834;2022-10-17T00:03:09;101670.44;;;7.23;80.05
9059;BME280;4564;42.034;25.834;2022-10-17T00:05:38;101664.41;;;6.98;80.72
9059;BME280;4564;42.034;25.834;2022-10-17T00:08:06;101667.63;;;6.92;80.89
9059;BME280;4564;42.034;25.834;2022-10-17T00:10:32;101670.06;;;6.74;82.15
9059;BME280;4564;42.034;25.834;2022-10-17T00:12:59;101668.91;;;6.56;83.21
9059;BME280;4564;42.034;25.834;2022-10-17T00:15:25;101676.66;;;6.39;85.44
9059;BME280;4564;42.034;25.834;2022-10-17T00:17:52;101677.03;;;6.34;85.49
9059;BME280;4564;42.034;25.834;2022-10-17T00:20:19;101686.09;;;6.33;84.78
9059;BME280;4564;42.034;25.834;2022-10-17T00:22:45;101669.34;;;6.29;85.38
9059;BME280;4564;42.034;25.834;2022-10-17T00:25:13;101673.00;;;6.40;85.54
9059;BME280;4564;42.034;25.834;2022-10-17T00:27:40;101665.84;;;6.50;84.18
9059;BME280;4564;42.034;25.834;2022-10-17T00:30:09;101672.97;;;6.51;84.47
9059;BME280;4564;42.034;25.834;2022-10-17T00:32:36;101671.00;;;6.53;83.92
9059;BME280;4564;42.034;25.834;2022-10-17T00:35:03;101670.22;;;6.62;84.55
9059;BME280;4564;42.034;25.834;2022-10-17T00:37:30;101673.13;;;6.70;83.87
9059;BME280;4564;42.034;25.834;2022-10-17T00:39:56;101668.94;;;6.77;84.06
9059;BME280;4564;42.034;25.834;2022-10-17T00:42:24;101669.41;;;6.82;82.36
9059;BME280;4564;42.034;25.834;2022-10-17T00:44:59;101676.06;;;6.78;81.56
9059;BME280;4564;42.034;25.834;2022-10-17T00:47:26;101669.78;;;6.78;81.68
9059;BME280;4564;42.034;25.834;2022-10-17T00:49:53;101665.84;;;6.82;81.78
9059;BME280;4564;42.034;25.834;2022-10-17T00:52:20;101670.16;;;6.84;81.61
9059;BME280;4564;42.034;25.834;2022-10-17T00:54:48;101675.94;;;6.80;81.57
9059;BME280;4564;42.034;25.834;2022-10-17T00:57:17;101663.66;;;6.75;80.87
9059;BME280;4564;42.034;25.834;2022-10-17T00:59:46;101672.09;;;6.82;81.10
9059;BME280;4564;42.034;25.834;2022-10-17T01:02:15;101672.63;;;6.76;81.33
9059;BME280;4564;42.034;25.834;2022-10-17T01:04:43;101671.91;;;6.74;80.34
9059;BME280;4564;42.034;25.834;2022-10-17T01:07:10;101683.78;;;6.71;79.58
9059;BME280;4564;42.034;25.834;2022-10-17T01:09:36;101682.28;;;6.47;79.76
9059;BME280;4564;42.034;25.834;2022-10-17T01:12:06;101681.34;;;6.37;79.06
9059;BME280;4564;42.034;25.834;2022-10-17T01:14:39;101678.16;;;6.31;78.76
9059;BME280;4564;42.034;25.834;2022-10-17T01:17:10;101678.41;;;6.28;78.79
9059;BME280;4564;42.034;25.834;2022-10-17T01:19:43;101673.50;;;6.22;79.09
9059;BME280;4564;42.034;25.834;2022-10-17T01:22:14;101671.09;;;6.08;78.84
9059;BME280;4564;42.034;25.834;2022-10-17T01:24:49;101675.72;;;5.84;79.60
9059;BME280;4564;42.034;25.834;2022-10-17T01:27:39;101671.84;;;5.88;80.19
9059;BME280;4564;42.034;25.834;2022-10-17T01:32:55;101667.56;;;5.97;80.48
9059;BME280;4564;42.034;25.834;2022-10-17T01:35:25;101662.75;;;6.00;80.65
9059;BME280;4564;42.034;25.834;2022-10-17T01:37:55;101670.63;;;6.03;81.25
9059;BME280;4564;42.034;25.834;2022-10-17T01:40:24;101673.91;;;6.07;80.28
9059;BME280;4564;42.034;25.834;2022-10-17T01:42:54;101675.75;;;5.95;80.55
9059;BME280;4564;42.034;25.834;2022-10-17T01:45:24;101674.53;;;5.77;80.83
9059;BME280;4564;42.034;25.834;2022-10-17T01:47:53;101673.53;;;5.67;81.04
9059;BME280;4564;42.034;25.834;2022-10-17T01:50:22;101668.50;;;5.73;81.17
9059;BME280;4564;42.034;25.834;2022-10-17T01:52:51;101665.78;;;5.62;80.92
9059;BME280;4564;42.034;25.834;2022-10-17T01:55:19;101669.97;;;5.55;81.03
9059;BME280;4564;42.034;25.834;2022-10-17T01:57:48;101671.53;;;5.46;81.21
9059;BME280;4564;42.034;25.834;2022-10-17T02:00:17;101685.47;;;5.40;82.50
9059;BME280;4564;42.034;25.834;2022-10-17T02:02:45;101678.31;;;5.06;83.15
9059;BME280;4564;42.034;25.834;2022-10-17T02:05:12;101683.09;;;5.14;83.34
9059;BME280;4564;42.034;25.834;2022-10-17T02:07:41;101684.16;;;5.00;83.13
9059;BME280;4564;42.034;25.834;2022-10-17T02:10:09;101687.31;;;4.94;82.84
9059;BME280;4564;42.034;25.834;2022-10-17T02:12:41;101688.25;;;4.82;82.58
9059;BME280;4564;42.034;25.834;2022-10-17T02:15:21;101685.69;;;4.80;83.07
9059;BME280;4564;42.034;25.834;2022-10-17T02:17:53;101690.88;;;4.71;83.74
9059;BME280;4564;42.034;25.834;2022-10-17T02:20:23;101695.81;;;4.77;84.21
9059;BME280;4564;42.034;25.834;2022-10-17T02:22:53;101653.63;;;4.42;83.69
9059;BME280;4564;42.034;25.834;2022-10-17T02:25:22;101687.13;;;4.73;83.90
9059;BME280;4564;42.034;25.834;2022-10-17T02:27:55;101686.31;;;4.84;83.95
9059;BME280;4564;42.034;25.834;2022-10-17T02:30:27;101687.31;;;4.94;83.60
9059;BME280;4564;42.034;25.834;2022-10-17T02:32:56;101690.81;;;5.07;83.59
9059;BME280;4564;42.034;25.834;2022-10-17T02:35:26;101698.38;;;5.13;83.09
9059;BME280;4564;42.034;25.834;2022-10-17T02:37:56;101703.75;;;5.13;82.67
9059;BME280;4564;42.034;25.834;2022-10-17T02:40:23;101702.06;;;5.12;82.17
9059;BME280;4564;42.034;25.834;2022-10-17T02:42:51;101705.00;;;5.20;81.79
9059;BME280;4564;42.034;25.834;2022-10-17T02:45:18;101711.25;;;5.21;81.29
9059;BME280;4564;42.034;25.834;2022-10-17T02:47:48;101713.59;;;5.25;81.88
9059;BME280;4564;42.034;25.834;2022-10-17T02:50:16;101712.38;;;5.18;82.18
9059;BME280;4564;42.034;25.834;2022-10-17T02:52:45;101724.72;;;5.21;81.96
9059;BME280;4564;42.034;25.834;2022-10-17T02:55:16;101721.06;;;5.22;81.61
9059;BME280;4564;42.034;25.834;2022-10-17T02:57:44;101737.31;;;5.20;82.10
9059;BME280;4564;42.034;25.834;2022-10-17T03:00:12;101733.09;;;5.05;81.99
9059;BME280;4564;42.034;25.834;2022-10-17T03:02:40;101737.72;;;5.03;81.28
9059;BME280;4564;42.034;25.834;2022-10-17T03:05:07;101742.03;;;4.82;80.84
9059;BME280;4564;42.034;25.834;2022-10-17T03:07:33;101744.38;;;4.62;82.19
9059;BME280;4564;42.034;25.834;2022-10-17T03:10:00;101741.97;;;4.71;82.67
9059;BME280;4564;42.034;25.834;2022-10-17T03:12:28;101744.50;;;4.85;83.00
9059;BME280;4564;42.034;25.834;2022-10-17T03:14:55;101740.84;;;4.86;83.38
9059;BME280;4564;42.034;25.834;2022-10-17T03:17:21;101744.78;;;4.93;82.78
9059;BME280;4564;42.034;25.834;2022-10-17T03:19:48;101746.91;;;5.00;82.92
9059;BME280;4564;42.034;25.834;2022-10-17T03:22:14;101750.56;;;4.99;82.90
9059;BME280;4564;42.034;25.834;2022-10-17T03:24:41;101755.31;;;4.96;83.17
9059;BME280;4564;42.034;25.834;2022-10-17T03:27:07;101757.00;;;4.97;83.42
9059;BME280;4564;42.034;25.834;2022-10-17T03:29:36;101750.56;;;4.99;83.30
9059;BME280;4564;42.034;25.834;2022-10-17T03:32:02;101756.94;;;5.10;83.18
9059;BME280;4564;42.034;25.834;2022-10-17T03:34:29;101756.59;;;5.14;83.27
9059;BME280;4564;42.034;25.834;2022-10-17T03:36:56;101755.63;;;5.15;82.09
9059;BME280;4564;42.034;25.834;2022-10-17T03:39:22;101756.03;;;4.98;82.34
9059;BME280;4564;42.034;25.834;2022-10-17T03:41:49;101765.19;;;4.72;82.90
9059;BME280;4564;42.034;25.834;2022-10-17T03:44:15;101774.47;;;4.68;83.28
9059;BME280;4564;42.034;25.834;2022-10-17T03:46:43;101771.34;;;4.74;83.35
9059;BME280;4564;42.034;25.834;2022-10-17T03:49:10;101771.59;;;4.82;83.45
9059;BME280;4564;42.034;25.834;2022-10-17T03:51:37;101774.28;;;4.82;83.00
9059;BME280;4564;42.034;25.834;2022-10-17T03:54:03;101779.84;;;4.68;83.14
9059;BME280;4564;42.034;25.834;2022-10-17T03:56:30;101782.81;;;4.39;83.96
9059;BME280;4564;42.034;25.834;2022-10-17T03:58:57;101784.03;;;4.35;84.23
9059;BME280;4564;42.034;25.834;2022-10-17T04:01:23;101783.16;;;4.47;84.80
9059;BME280;4564;42.034;25.834;2022-10-17T04:03:51;101790.44;;;4.45;84.25
9059;BME280;4564;42.034;25.834;2022-10-17T04:06:19;101782.16;;;4.48;84.22
9059;BME280;4564;42.034;25.834;2022-10-17T04:08:45;101782.88;;;4.63;84.01
9059;BME280;4564;42.034;25.834;2022-10-17T04:11:13;101787.50;;;4.61;83.61
9059;BME280;4564;42.034;25.834;2022-10-17T04:13:40;101790.81;;;4.64;83.47
9059;BME280;4564;42.034;25.834;2022-10-17T04:16:08;101789.22;;;4.62;83.89
9059;BME280;4564;42.034;25.834;2022-10-17T04:18:35;101798.66;;;4.68;83.74
9059;BME280;4564;42.034;25.834;2022-10-17T04:21:04;101795.22;;;4.65;83.71
9059;BME280;4564;42.034;25.834;2022-10-17T04:23:31;101796.94;;;4.67;83.94
9059;BME280;4564;42.034;25.834;2022-10-17T04:25:57;101798.22;;;4.74;83.73
9059;BME280;4564;42.034;25.834;2022-10-17T04:28:25;101808.53;;;4.80;83.24
9059;BME280;4564;42.034;25.834;2022-10-17T04:30:55;101801.50;;;4.90;82.81
9059;BME280;4564;42.034;25.834;2022-10-17T04:33:22;101798.56;;;4.93;83.07
9059;BME280;4564;42.034;25.834;2022-10-17T04:35:53;101794.16;;;4.92;83.32
9059;BME280;4564;42.034;25.834;2022-10-17T04:38:21;101790.84;;;4.88;83.44
9059;BME280;4564;42.034;25.834;2022-10-17T04:40:48;101792.53;;;5.02;83.42
9059;BME280;4564;42.034;25.834;2022-10-17T04:43:15;101798.28;;;5.08;83.55
9059;BME280;4564;42.034;25.834;2022-10-17T04:45:41;101792.09;;;5.19;83.90
9059;BME280;4564;42.034;25.834;2022-10-17T04:48:08;101788.22;;;5.23;83.37
9059;BME280;4564;42.034;25.834;2022-10-17T04:50:34;101782.88;;;5.34;83.55
9059;BME280;4564;42.034;25.834;2022-10-17T04:53:01;101788.41;;;5.44;83.32
9059;BME280;4564;42.034;25.834;2022-10-17T04:55:29;101793.94;;;5.54;83.34
9059;BME280;4564;42.034;25.834;2022-10-17T04:57:55;101797.63;;;5.64;82.99
9059;BME280;4564;42.034;25.834;2022-10-17T05:00:22;101800.34;;;5.75;81.97
9059;BME280;4564;42.034;25.834;2022-10-17T05:02:48;101792.88;;;5.78;81.54
9059;BME280;4564;42.034;25.834;2022-10-17T05:05:15;101802.13;;;5.87;81.15
9059;BME280;4564;42.034;25.834;2022-10-17T05:07:42;101804.97;;;5.97;80.65
9059;BME280;4564;42.034;25.834;2022-10-17T05:10:08;101807.56;;;6.09;79.43
9059;BME280;4564;42.034;25.834;2022-10-17T05:12:36;101813.44;;;6.14;78.77
9059;BME280;4564;42.034;25.834;2022-10-17T05:15:03;101816.34;;;6.11;77.73
9059;BME280;4564;42.034;25.834;2022-10-17T05:17:30;101823.94;;;6.06;77.19
9059;BME280;4564;42.034;25.834;2022-10-17T05:19:57;101826.91;;;6.03;77.29
9059;BME280;4564;42.034;25.834;2022-10-17T05:22:23;101826.50;;;5.97;76.90
9059;BME280;4564;42.034;25.834;2022-10-17T05:24:50;101824.56;;;5.99;77.04
9059;BME280;4564;42.034;25.834;2022-10-17T05:27:16;101830.06;;;5.97;78.39
9059;BME280;4564;42.034;25.834;2022-10-17T05:29:44;101832.78;;;6.08;79.02
9059;BME280;4564;42.034;25.834;2022-10-17T05:32:11;101829.22;;;6.08;78.63
9059;BME280;4564;42.034;25.834;2022-10-17T05:34:37;101827.72;;;5.93;79.51
9059;BME280;4564;42.034;25.834;2022-10-17T05:37:04;101833.50;;;5.99;80.25
9059;BME280;4564;42.034;25.834;2022-10-17T05:39:31;101828.63;;;6.15;80.32
9059;BME280;4564;42.034;25.834;2022-10-17T05:41:57;101825.78;;;6.17;80.93
9059;BME280;4564;42.034;25.834;2022-10-17T05:44:24;101837.44;;;6.28;81.07
9059;BME280;4564;42.034;25.834;2022-10-17T05:46:52;101836.72;;;6.49;80.00
9059;BME280;4564;42.034;25.834;2022-10-17T05:49:18;101843.53;;;6.75;79.50
9059;BME280;4564;42.034;25.834;2022-10-17T05:51:45;101853.41;;;7.51;78.76
9059;BME280;4564;42.034;25.834;2022-10-17T05:54:11;101857.16;;;8.63;73.19
9059;BME280;4564;42.034;25.834;2022-10-17T05:56:38;101872.00;;;10.15;68.73
9059;BME280;4564;42.034;25.834;2022-10-17T05:59:05;101871.31;;;11.59;64.22
9059;BME280;4564;42.034;25.834;2022-10-17T06:01:31;101871.94;;;12.91;62.07
9059;BME280;4564;42.034;25.834;2022-10-17T06:03:59;101880.03;;;13.83;55.64
9059;BME280;4564;42.034;25.834;2022-10-17T06:06:26;101872.53;;;14.50;54.84
9059;BME280;4564;42.034;25.834;2022-10-17T06:08:53;101881.25;;;14.29;51.68
9059;BME280;4564;42.034;25.834;2022-10-17T06:11:20;101875.94;;;14.44;51.92
9059;BME280;4564;42.034;25.834;2022-10-17T06:13:46;101878.66;;;14.60;51.96
9059;BME280;4564;42.034;25.834;2022-10-17T06:16:13;101869.09;;;13.51;54.42
9059;BME280;4564;42.034;25.834;2022-10-17T06:18:39;101886.38;;;14.08;55.16
9059;BME280;4564;42.034;25.834;2022-10-17T06:21:08;101889.63;;;14.99;52.75
9059;BME280;4564;42.034;25.834;2022-10-17T06:24:18;101897.16;;;15.90;50.72
9059;BME280;4564;42.034;25.834;2022-10-17T06:26:45;101888.78;;;16.66;47.08
9059;BME280;4564;42.034;25.834;2022-10-17T06:29:14;101886.25;;;17.45;45.51
9059;BME280;4564;42.034;25.834;2022-10-17T06:31:40;101898.38;;;18.08;44.07
9059;BME280;4564;42.034;25.834;2022-10-17T06:34:07;101899.94;;;18.66;42.09
9059;BME280;4564;42.034;25.834;2022-10-17T06:36:34;101903.78;;;18.71;40.97
9059;BME280;4564;42.034;25.834;2022-10-17T06:39:00;101899.84;;;18.87;41.00
9059;BME280;4564;42.034;25.834;2022-10-17T06:41:28;101905.75;;;18.84;41.90
9059;BME280;4564;42.034;25.834;2022-10-17T06:43:55;101907.06;;;18.88;40.65
9059;BME280;4564;42.034;25.834;2022-10-17T06:46:21;101915.66;;;19.13;40.46
9059;BME280;4564;42.034;25.834;2022-10-17T06:48:52;101914.28;;;19.91;40.64
9059;BME280;4564;42.034;25.834;2022-10-17T06:51:18;101916.25;;;20.36;37.67
9059;BME280;4564;42.034;25.834;2022-10-17T06:53:45;101923.91;;;20.67;36.69
9059;BME280;4564;42.034;25.834;2022-10-17T06:56:12;101917.66;;;19.93;37.83
9059;BME280;4564;42.034;25.834;2022-10-17T06:58:40;101907.91;;;18.89;39.89
9059;BME280;4564;42.034;25.834;2022-10-17T07:01:07;101919.38;;;18.64;40.99
9059;BME280;4564;42.034;25.834;2022-10-17T07:03:34;101911.16;;;18.22;40.87
9059;BME280;4564;42.034;25.834;2022-10-17T07:06:01;101913.66;;;17.95;41.68
9059;BME280;4564;42.034;25.834;2022-10-17T07:08:28;101915.84;;;16.47;44.76
9059;BME280;4564;42.034;25.834;2022-10-17T07:10:54;101924.44;;;16.44;45.72
9059;BME280;4564;42.034;25.834;2022-10-17T07:13:21;101918.66;;;16.38;46.15
9059;BME280;4564;42.034;25.834;2022-10-17T07:15:49;101916.06;;;16.22;46.78
9059;BME280;4564;42.034;25.834;2022-10-17T07:18:15;101918.50;;;15.72;47.47
9059;BME280;4564;42.034;25.834;2022-10-17T07:20:42;101918.59;;;15.56;48.58
9059;BME280;4564;42.034;25.834;2022-10-17T07:23:09;101925.06;;;15.24;49.54
9059;BME280;4564;42.034;25.834;2022-10-17T07:25:35;101915.53;;;15.59;49.21
9059;BME280;4564;42.034;25.834;2022-10-17T07:28:02;101915.22;;;15.76;49.19
9059;BME280;4564;42.034;25.834;2022-10-17T07:30:29;101924.97;;;15.79;48.75
9059;BME280;4564;42.034;25.834;2022-10-17T07:32:56;101919.41;;;15.64;48.64
9059;BME280;4564;42.034;25.834;2022-10-17T07:35:23;101923.72;;;15.50;50.16
9059;BME280;4564;42.034;25.834;2022-10-17T07:37:50;101916.91;;;15.46;49.62
9059;BME280;4564;42.034;25.834;2022-10-17T07:40:16;101910.81;;;15.75;49.58
9059;BME280;4564;42.034;25.834;2022-10-17T07:42:43;101914.88;;;16.02;50.05
9059;BME280;4564;42.034;25.834;2022-10-17T07:45:09;101917.38;;;16.12;49.68
9059;BME280;4564;42.034;25.834;2022-10-17T07:47:36;101912.94;;;16.25;49.27
9059;BME280;4564;42.034;25.834;2022-10-17T07:50:04;101920.97;;;16.12;48.64
9059;BME280;4564;42.034;25.834;2022-10-17T07:52:31;101921.81;;;15.90;48.81
9059;BME280;4564;42.034;25.834;2022-10-17T07:54:58;101906.84;;;15.78;50.50
9059;BME280;4564;42.034;25.834;2022-10-17T07:57:24;101914.94;;;15.94;49.32
9059;BME280;4564;42.034;25.834;2022-10-17T07:59:51;101917.53;;;16.10;49.51
9059;BME280;4564;42.034;25.834;2022-10-17T08:02:20;101912.31;;;16.23;49.67
9059;BME280;4564;42.034;25.834;2022-10-17T08:04:47;101911.19;;;16.32;48.88
9059;BME280;4564;42.034;25.834;2022-10-17T08:07:15;101908.03;;;16.21;49.05
9059;BME280;4564;42.034;25.834;2022-10-17T08:09:43;101905.44;;;16.42;49.52
9059;BME280;4564;42.034;25.834;2022-10-17T08:12:10;101910.28;;;16.40;49.14
9059;BME280;4564;42.034;25.834;2022-10-17T08:14:39;101907.41;;;16.71;48.36
9059;BME280;4564;42.034;25.834;2022-10-17T08:17:05;101915.66;;;17.00;48.39
9059;BME280;4564;42.034;25.834;2022-10-17T08:19:32;101912.19;;;17.28;47.58
9059;BME280;4564;42.034;25.834;2022-10-17T08:21:58;101909.97;;;17.16;47.16
9059;BME280;4564;42.034;25.834;2022-10-17T08:24:27;101904.41;;;17.46;47.24
9059;BME280;4564;42.034;25.834;2022-10-17T08:26:54;101905.53;;;17.66;47.00
9059;BME280;4564;42.034;25.834;2022-10-17T08:29:22;101908.94;;;17.68;46.82
9059;BME280;4564;42.034;25.834;2022-10-17T08:31:49;101905.03;;;17.27;47.20
9059;BME280;4564;42.034;25.834;2022-10-17T08:34:17;101900.09;;;17.37;47.88
9059;BME280;4564;42.034;25.834;2022-10-17T08:36:43;101901.09;;;17.50;47.13
9059;BME280;4564;42.034;25.834;2022-10-17T08:39:10;101901.75;;;17.88;46.35
9059;BME280;4564;42.034;25.834;2022-10-17T08:41:42;101896.59;;;17.79;45.75
9059;BME280;4564;42.034;25.834;2022-10-17T08:44:13;101901.13;;;17.86;45.68
9059;BME280;4564;42.034;25.834;2022-10-17T08:46:46;101897.09;;;18.10;45.43
9059;BME280;4564;42.034;25.834;2022-10-17T08:49:14;101889.84;;;18.24;44.83
9059;BME280;4564;42.034;25.834;2022-10-17T08:51:43;101898.13;;;18.30;45.29
9059;BME280;4564;42.034;25.834;2022-10-17T08:54:13;101889.13;;;18.64;43.89
9059;BME280;4564;42.034;25.834;2022-10-17T08:56:44;101884.72;;;19.04;43.25
9059;BME280;4564;42.034;25.834;2022-10-17T08:59:11;101883.56;;;19.33;42.97
9059;BME280;4564;42.034;25.834;2022-10-17T09:01:40;101881.03;;;19.32;41.61
9059;BME280;4564;42.034;25.834;2022-10-17T09:06:52;101875.22;;;19.61;41.50
9059;BME280;4564;42.034;25.834;2022-10-17T09:09:25;101879.50;;;19.70;40.89
9059;BME280;4564;42.034;25.834;2022-10-17T09:12:02;101879.44;;;19.57;40.85
9059;BME280;4564;42.034;25.834;2022-10-17T09:14:37;101874.22;;;19.27;41.93
9059;BME280;4564;42.034;25.834;2022-10-17T09:17:11;101867.47;;;19.30;42.11
9059;BME280;4564;42.034;25.834;2022-10-17T09:19:41;101870.97;;;19.58;41.37
9059;BME280;4564;42.034;25.834;2022-10-17T09:22:11;101866.09;;;19.60;41.18
9059;BME280;4564;42.034;25.834;2022-10-17T09:24:40;101861.00;;;19.57;41.11
9059;BME280;4564;42.034;25.834;2022-10-17T09:27:13;101862.91;;;19.50;41.18
9059;BME280;4564;42.034;25.834;2022-10-17T09:29:41;101869.94;;;19.59;41.23
9059;BME280;4564;42.034;25.834;2022-10-17T09:32:12;101865.69;;;19.77;41.63
9059;BME280;4564;42.034;25.834;2022-10-17T09:34:40;101851.53;;;19.93;41.53
9059;BME280;4564;42.034;25.834;2022-10-17T09:37:08;101845.19;;;20.05;41.89
9059;BME280;4564;42.034;25.834;2022-10-17T09:39:37;101844.34;;;20.51;40.65
9059;BME280;4564;42.034;25.834;2022-10-17T09:42:07;101844.69;;;20.74;40.44
9059;BME280;4564;42.034;25.834;2022-10-17T09:44:38;101840.75;;;20.50;40.30
9059;BME280;4564;42.034;25.834;2022-10-17T09:47:12;101847.72;;;20.60;40.91
9059;BME280;4564;42.034;25.834;2022-10-17T09:49:41;101848.16;;;20.57;40.74
9059;BME280;4564;42.034;25.834;2022-10-17T09:52:09;101837.97;;;20.24;40.92
9059;BME280;4564;42.034;25.834;2022-10-17T09:54:40;101842.63;;;19.78;42.19
9059;BME280;4564;42.034;25.834;2022-10-17T09:57:07;101839.00;;;19.77;42.98
9059;BME280;4564;42.034;25.834;2022-10-17T09:59:35;101832.81;;;19.55;42.76
9059;BME280;4564;42.034;25.834;2022-10-17T10:02:14;101842.09;;;19.41;43.46
9059;BME280;4564;42.034;25.834;2022-10-17T10:04:54;101835.47;;;19.29;44.15
9059;BME280;4564;42.034;25.834;2022-10-17T10:07:20;101839.50;;;19.26;45.78
9059;BME280;4564;42.034;25.834;2022-10-17T10:09:47;101834.81;;;19.20;46.62
9059;BME280;4564;42.034;25.834;2022-10-17T10:12:15;101834.84;;;19.34;46.31
9059;BME280;4564;42.034;25.834;2022-10-17T10:14:43;101824.34;;;19.50;45.47
9059;BME280;4564;42.034;25.834;2022-10-17T10:17:25;101828.63;;;19.59;45.92
9059;BME280;4564;42.034;25.834;2022-10-17T10:19:52;101823.84;;;19.27;46.99
9059;BME280;4564;42.034;25.834;2022-10-17T10:22:19;101831.47;;;19.32;47.00
9059;BME280;4564;42.034;25.834;2022-10-17T10:24:54;101821.94;;;19.34;46.83
9059;BME280;4564;42.034;25.834;2022-10-17T10:27:31;101826.81;;;19.32;46.68
9059;BME280;4564;42.034;25.834;2022-10-17T10:29:58;101817.06;;;19.36;46.38
9059;BME280;4564;42.034;25.834;2022-10-17T10:32:27;101814.75;;;19.40;46.26
9059;BME280;4564;42.034;25.834;2022-10-17T10:34:56;101806.06;;;19.36;46.10
9059;BME280;4564;42.034;25.834;2022-10-17T10:37:24;101802.47;;;19.42;46.33
9059;BME280;4564;42.034;25.834;2022-10-17T10:39:52;101794.97;;;19.16;46.84
9059;BME280;4564;42.034;25.834;2022-10-17T10:42:24;101793.22;;;18.96;47.83
9059;BME280;4564;42.034;25.834;2022-10-17T10:44:52;101795.38;;;19.07;47.63
9059;BME280;4564;42.034;25.834;2022-10-17T10:47:21;101793.28;;;19.09;47.08
9059;BME280;4564;42.034;25.834;2022-10-17T10:49:51;101792.91;;;19.25;46.92
9059;BME280;4564;42.034;25.834;2022-10-17T10:52:21;101800.13;;;19.39;46.72
9059;BME280;4564;42.034;25.834;2022-10-17T10:54:54;101799.72;;;19.42;46.10
9059;BME280;4564;42.034;25.834;2022-10-17T10:57:23;101785.31;;;19.40;46.16
9059;BME280;4564;42.034;25.834;2022-10-17T10:59:53;101779.47;;;19.69;46.01
9059;BME280;4564;42.034;25.834;2022-10-17T11:02:23;101780.72;;;20.13;44.40
9059;BME280;4564;42.034;25.834;2022-10-17T11:04:54;101777.31;;;20.04;44.22
9059;BME280;4564;42.034;25.834;2022-10-17T11:07:24;101791.97;;;20.05;44.33
9059;BME280;4564;42.034;25.834;2022-10-17T11:09:54;101785.19;;;19.94;44.30
9059;BME280;4564;42.034;25.834;2022-10-17T11:12:23;101765.44;;;20.24;44.44
9059;BME280;4564;42.034;25.834;2022-10-17T11:14:52;101770.94;;;20.43;44.09
9059;BME280;4564;42.034;25.834;2022-10-17T11:17:23;101770.28;;;20.41;44.13
9059;BME280;4564;42.034;25.834;2022-10-17T11:19:58;101770.06;;;20.56;43.52
9059;BME280;4564;42.034;25.834;2022-10-17T11:22:28;101759.47;;;20.46;43.29
9059;BME280;4564;42.034;25.834;2022-10-17T11:24:57;101759.50;;;20.27;43.67
9059;BME280;4564;42.034;25.834;2022-10-17T11:27:25;101759.09;;;20.10;44.14
9059;BME280;4564;42.034;25.834;2022-10-17T11:29:53;101767.56;;;20.15;44.53
9059;BME280;4564;42.034;25.834;2022-10-17T11:32:21;101767.56;;;20.15;44.55
9059;BME280;4564;42.034;25.834;2022-10-17T11:34:51;101760.75;;;20.31;44.86
9059;BME280;4564;42.034;25.834;2022-10-17T11:37:22;101760.75;;;20.50;44.27
9059;BME280;4564;42.034;25.834;2022-10-17T11:39:50;101742.44;;;20.63;44.07
9059;BME280;4564;42.034;25.834;2022-10-17T11:42:20;101743.25;;;20.70;43.36
9059;BME280;4564;42.034;25.834;2022-10-17T11:44:49;101740.78;;;20.62;44.34
9059;BME280;4564;42.034;25.834;2022-10-17T11:47:25;101734.81;;;20.65;44.11
9059;BME280;4564;42.034;25.834;2022-10-17T11:49:58;101727.84;;;20.56;44.28
9059;BME280;4564;42.034;25.834;2022-10-17T11:52:32;101743.75;;;20.53;44.76
9059;BME280;4564;42.034;25.834;2022-10-17T11:55:01;101748.88;;;20.43;44.99
9059;BME280;4564;42.034;25.834;2022-10-17T11:57:34;101730.66;;;20.29;45.27
9059;BME280;4564;42.034;25.834;2022-10-17T12:00:09;101731.72;;;20.28;44.57
9059;BME280;4564;42.034;25.834;2022-10-17T12:02:40;101727.03;;;20.42;44.38
9059;BME280;4564;42.034;25.834;2022-10-17T12:05:18;101722.75;;;20.52;44.25
9059;BME280;4564;42.034;25.834;2022-10-17T12:07:49;101714.25;;;20.61;44.10
9059;BME280;4564;42.034;25.834;2022-10-17T12:10:23;101713.56;;;20.72;43.63
9059;BME280;4564;42.034;25.834;2022-10-17T12:12:54;101719.09;;;20.65;43.80
9059;BME280;4564;42.034;25.834;2022-10-17T12:15:27;101725.25;;;20.67;43.94
9059;BME280;4564;42.034;25.834;2022-10-17T12:17:54;101710.00;;;20.58;43.36
9059;BME280;4564;42.034;25.834;2022-10-17T12:20:29;101723.03;;;20.31;43.92
9059;BME280;4564;42.034;25.834;2022-10-17T12:23:03;101708.59;;;20.23;43.92
9059;BME280;4564;42.034;25.834;2022-10-17T12:25:30;101721.56;;;20.09;44.30
9059;BME280;4564;42.034;25.834;2022-10-17T12:28:04;101722.84;;;20.06;44.66
9059;BME280;4564;42.034;25.834;2022-10-17T12:30:35;101716.28;;;20.07;45.00
9059;BME280;4564;42.034;25.834;2022-10-17T12:33:02;101711.38;;;20.09;44.96
9059;BME280;4564;42.034;25.834;2022-10-17T12:35:31;101701.38;;;20.28;44.82
9059;BME280;4564;42.034;25.834;2022-10-17T12:38:12;101703.91;;;20.36;44.85
9059;BME280;4564;42.034;25.834;2022-10-17T12:40:50;101698.84;;;20.33;45.00
9059;BME280;4564;42.034;25.834;2022-10-17T12:46:03;101702.66;;;20.39;44.63
9059;BME280;4564;42.034;25.834;2022-10-17T12:51:15;101703.50;;;20.26;44.04
9059;BME280;4564;42.034;25.834;2022-10-17T12:53:45;101706.06;;;20.21;43.90
9059;BME280;4564;42.034;25.834;2022-10-17T12:56:15;101704.41;;;20.00;44.52
9059;BME280;4564;42.034;25.834;2022-10-17T12:58:44;101700.81;;;19.93;44.59
9059;BME280;4564;42.034;25.834;2022-10-17T13:01:13;101693.38;;;19.94;44.60
9059;BME280;4564;42.034;25.834;2022-10-17T13:03:43;101699.53;;;19.96;44.57
9059;BME280;4564;42.034;25.834;2022-10-17T13:06:12;101698.03;;;20.00;44.17
9059;BME280;4564;42.034;25.834;2022-10-17T13:08:42;101686.59;;;20.03;43.95
9059;BME280;4564;42.034;25.834;2022-10-17T13:11:10;101701.00;;;20.05;43.45
9059;BME280;4564;42.034;25.834;2022-10-17T13:13:40;101683.19;;;20.07;43.69
9059;BME280;4564;42.034;25.834;2022-10-17T13:16:07;101688.91;;;20.06;43.91
9059;BME280;4564;42.034;25.834;2022-10-17T13:18:34;101695.50;;;20.05;44.40
9059;BME280;4564;42.034;25.834;2022-10-17T13:21:02;101695.50;;;20.05;44.46
9059;BME280;4564;42.034;25.834;2022-10-17T13:23:30;101698.03;;;20.06;44.41